Green Maru No.8 — JD2165 — position and weather

sailwx.info

Track history (hours):
 
Tides and Currents Weather Stations Pressure Air Temp Water Temp Dewpoint Dewpoint Depression Visibility Wind Speed Wind Dir Waves Ship Positions

Green Maru No.8

Last reported at 2018-Jan-23 19:00 UTC. Time now 2018-Jan-23 19:19 UTC.
Position N 35°22' E 139°44'.

Length 71 m; draft 3.7 m.

Type: Tanker. MMSI: 431501838.

Date/timePositionNaut miles runAvg speedWind from/ knotsBaromVisibWave heightAir tempDewpointWater temp
2018-Jan-23 19:00N 35°22' E 139°44'0 0.0
2018-Jan-23 18:27N 35°22' E 139°44'0 0.0
2018-Jan-23 18:00N 35°22' E 139°44'0 0.0
2018-Jan-23 17:30N 35°22' E 139°44'0 0.0
2018-Jan-23 17:00N 35°22' E 139°44'0 0.0
2018-Jan-23 16:30N 35°22' E 139°44'0 0.0
2018-Jan-23 15:57N 35°22' E 139°44'0 0.0
2018-Jan-23 15:27N 35°22' E 139°44'0 0.0
2018-Jan-23 15:00N 35°22' E 139°44'0 0.0
2018-Jan-23 14:30N 35°22' E 139°44'0 0.0
2018-Jan-23 13:57N 35°22' E 139°44'0 0.0
2018-Jan-23 13:30N 35°22' E 139°44'0 0.0
2018-Jan-23 13:00N 35°22' E 139°44'0 0.0
2018-Jan-23 12:30N 35°22' E 139°44'0 0.0
2018-Jan-23 11:57N 35°22' E 139°44'0 0.0
2018-Jan-23 11:30N 35°22' E 139°44'0 0.0
2018-Jan-23 11:00N 35°22' E 139°44'0 0.0
2018-Jan-23 10:30N 35°22' E 139°44'0 0.0
2018-Jan-23 10:00N 35°22' E 139°44'0 0.0
2018-Jan-23 09:30N 35°22' E 139°44'0 0.0
2018-Jan-23 09:00N 35°22' E 139°44'0 0.0
2018-Jan-23 08:27N 35°22' E 139°44'0 0.0
2018-Jan-23 07:57N 35°22' E 139°44'0 0.0
2018-Jan-23 07:30N 35°22' E 139°44'0 0.0
2018-Jan-23 06:57N 35°22' E 139°44'0 0.0
2018-Jan-23 06:30N 35°22' E 139°44'0 0.0
2018-Jan-23 06:00N 35°22' E 139°44'0 0.0
2018-Jan-23 05:30N 35°22' E 139°44'0 0.0
2018-Jan-23 05:00N 35°22' E 139°44'0 0.0
2018-Jan-23 04:30N 35°22' E 139°44'0 0.0
2018-Jan-23 04:00N 35°22' E 139°44'0 0.0
2018-Jan-23 03:30N 35°22' E 139°44'3 5.1
2018-Jan-23 03:00N 35°25' E 139°44'5 9.5
2018-Jan-23 02:31N 35°29' E 139°43'0 0.2
2018-Jan-23 01:59N 35°29' E 139°43'0 0.0
2018-Jan-23 01:29N 35°29' E 139°43'0 0.0
2018-Jan-23 00:59N 35°29' E 139°43'0 0.0
2018-Jan-23 00:29N 35°29' E 139°43'0 0.0
2018-Jan-22 23:59N 35°29' E 139°43'0 0.1
2018-Jan-22 23:30N 35°29' E 139°43'3 5.5
2018-Jan-22 23:00N 35°27' E 139°43'4 7.1
2018-Jan-22 22:30N 35°23' E 139°44'0 0.0
2018-Jan-22 21:59N 35°23' E 139°44'0 0.0
2018-Jan-22 21:29N 35°23' E 139°44'2 4.7
2018-Jan-22 21:00N 35°21' E 139°44'611.7
2018-Jan-22 20:30N 35°16' E 139°47'611.6
2018-Jan-22 20:00N 35°10' E 139°46'611.7
2018-Jan-22 19:28N 35°04' E 139°43'611.9
2018-Jan-22 19:00N 35°01' E 139°37'2311.8
2018-Jan-22 17:01N 34°47' E 139°14'111.4
2018-Jan-22 16:57N 34°47' E 139°14'710.9
2018-Jan-22 16:17N 34°42' E 139°07'310.7
2018-Jan-22 15:59N 34°40' E 139°04'611.2
2018-Jan-22 15:25N 34°36' E 138°58'3511.6
2018-Jan-22 12:26N 34°33' E 138°16'6810.4
2018-Jan-22 05:56N 34°37' E 136°54'511.8
2018-Jan-22 05:29N 34°41' E 136°49'612.6
2018-Jan-22 04:59N 34°46' E 136°46'612.4
2018-Jan-22 04:30N 34°52' E 136°43'612.1
2018-Jan-22 04:00N 34°58' E 136°41'2 4.9
2018-Jan-22 03:30N 34°56' E 136°38'0 0.0
2018-Jan-21 23:37N 34°56' E 136°38'0 0.0
2018-Jan-21 23:30N 34°56' E 136°38'1 2.7
2018-Jan-21 23:01N 34°57' E 136°40'1 2.1
2018-Jan-21 22:31N 34°57' E 136°41'0 0.0
2018-Jan-21 21:58N 34°57' E 136°41'0 0.0
2018-Jan-21 21:28N 34°57' E 136°41'0 0.0
2018-Jan-21 20:58N 34°57' E 136°41'0 0.0
2018-Jan-21 20:28N 34°57' E 136°41'0 0.1
2018-Jan-21 19:58N 34°57' E 136°41'0 0.1
2018-Jan-21 19:28N 34°57' E 136°41'0 0.0
2018-Jan-21 18:58N 34°57' E 136°41'0 0.0
2018-Jan-21 18:28N 34°57' E 136°41'0 0.0
2018-Jan-21 17:58N 34°57' E 136°41'0 0.0
2018-Jan-21 17:28N 34°57' E 136°41'0 0.0
2018-Jan-21 16:58N 34°57' E 136°41'0 0.0
2018-Jan-21 16:28N 34°57' E 136°41'0 0.0
2018-Jan-21 15:58N 34°57' E 136°41'0 0.0
2018-Jan-21 15:28N 34°57' E 136°41'0 0.0
2018-Jan-21 14:58N 34°57' E 136°41'0 0.0
2018-Jan-21 14:28N 34°57' E 136°41'0 0.0
2018-Jan-21 13:58N 34°57' E 136°41'0 0.0
2018-Jan-21 13:28N 34°57' E 136°41'0 0.0
2018-Jan-21 12:58N 34°57' E 136°41'0 0.0
2018-Jan-21 12:28N 34°57' E 136°41'0 0.0
2018-Jan-21 11:46N 34°57' E 136°41'0 0.0
2018-Jan-21 11:28N 34°57' E 136°41'0 0.0
2018-Jan-21 10:58N 34°57' E 136°41'0 0.0
2018-Jan-21 10:28N 34°57' E 136°41'0 0.0
2018-Jan-21 09:58N 34°57' E 136°41'0 0.0
2018-Jan-21 09:28N 34°57' E 136°41'0 0.0
2018-Jan-21 08:52N 34°57' E 136°41'0 0.1
2018-Jan-21 08:30N 34°57' E 136°41'4 8.5
2018-Jan-21 08:00N 34°53' E 136°42'612.2
2018-Jan-21 07:30N 34°47' E 136°45'102 7.8
2018-Jan-20 18:27N 33°52' E 135°02'613.2
2018-Jan-20 18:01N 33°57' E 135°00'713.6
2018-Jan-20 17:31N 34°04' E 134°60'713.6
2018-Jan-20 17:01N 34°11' E 134°59'713.9
2018-Jan-20 16:31N 34°18' E 134°59'713.5
2018-Jan-20 16:00N 34°25' E 135°01'612.8
2018-Jan-20 15:30N 34°31' E 135°02'611.1
2018-Jan-20 15:00N 34°36' E 135°02'510.7
2018-Jan-20 14:30N 34°35' E 134°56'611.5
2018-Jan-20 14:00N 34°33' E 134°49'611.5
2018-Jan-20 13:30N 34°31' E 134°43'612.2
2018-Jan-20 13:00N 34°28' E 134°36'  
Track history (hours):
 
Tides and Currents Weather Stations Pressure Air Temp Water Temp Dewpoint Dewpoint Depression Visibility Wind Speed Wind Dir Waves Ship Positions

Green Maru No.8

Last reported at 2018-Jan-23 19:00 UTC. Time now 2018-Jan-23 19:19 UTC.
Position N 35°22' E 139°44'.

Length 71 m; draft 3.7 m.

Type: Tanker. MMSI: 431501838.

Date/timePositionNaut miles runAvg speedWind from/ knotsBaromVisibWave heightAir tempDewpointWater temp
2018-Jan-23 19:00N 35°22' E 139°44'0 0.0
2018-Jan-23 18:27N 35°22' E 139°44'0 0.0
2018-Jan-23 18:00N 35°22' E 139°44'0 0.0
2018-Jan-23 17:30N 35°22' E 139°44'0 0.0
2018-Jan-23 17:00N 35°22' E 139°44'0 0.0
2018-Jan-23 16:30N 35°22' E 139°44'0 0.0
2018-Jan-23 15:57N 35°22' E 139°44'0 0.0
2018-Jan-23 15:27N 35°22' E 139°44'0 0.0
2018-Jan-23 15:00N 35°22' E 139°44'0 0.0
2018-Jan-23 14:30N 35°22' E 139°44'0 0.0
2018-Jan-23 13:57N 35°22' E 139°44'0 0.0
2018-Jan-23 13:30N 35°22' E 139°44'0 0.0
2018-Jan-23 13:00N 35°22' E 139°44'0 0.0
2018-Jan-23 12:30N 35°22' E 139°44'0 0.0
2018-Jan-23 11:57N 35°22' E 139°44'0 0.0
2018-Jan-23 11:30N 35°22' E 139°44'0 0.0
2018-Jan-23 11:00N 35°22' E 139°44'0 0.0
2018-Jan-23 10:30N 35°22' E 139°44'0 0.0
2018-Jan-23 10:00N 35°22' E 139°44'0 0.0
2018-Jan-23 09:30N 35°22' E 139°44'0 0.0
2018-Jan-23 09:00N 35°22' E 139°44'0 0.0
2018-Jan-23 08:27N 35°22' E 139°44'0 0.0
2018-Jan-23 07:57N 35°22' E 139°44'0 0.0
2018-Jan-23 07:30N 35°22' E 139°44'0 0.0
2018-Jan-23 06:57N 35°22' E 139°44'0 0.0
2018-Jan-23 06:30N 35°22' E 139°44'0 0.0
2018-Jan-23 06:00N 35°22' E 139°44'0 0.0
2018-Jan-23 05:30N 35°22' E 139°44'0 0.0
2018-Jan-23 05:00N 35°22' E 139°44'0 0.0
2018-Jan-23 04:30N 35°22' E 139°44'0 0.0
2018-Jan-23 04:00N 35°22' E 139°44'0 0.0
2018-Jan-23 03:30N 35°22' E 139°44'3 5.1
2018-Jan-23 03:00N 35°25' E 139°44'5 9.5
2018-Jan-23 02:31N 35°29' E 139°43'0 0.2
2018-Jan-23 01:59N 35°29' E 139°43'0 0.0
2018-Jan-23 01:29N 35°29' E 139°43'0 0.0
2018-Jan-23 00:59N 35°29' E 139°43'0 0.0
2018-Jan-23 00:29N 35°29' E 139°43'0 0.0
2018-Jan-22 23:59N 35°29' E 139°43'0 0.1
2018-Jan-22 23:30N 35°29' E 139°43'3 5.5
2018-Jan-22 23:00N 35°27' E 139°43'4 7.1
2018-Jan-22 22:30N 35°23' E 139°44'0 0.0
2018-Jan-22 21:59N 35°23' E 139°44'0 0.0
2018-Jan-22 21:29N 35°23' E 139°44'2 4.7
2018-Jan-22 21:00N 35°21' E 139°44'611.7
2018-Jan-22 20:30N 35°16' E 139°47'611.6
2018-Jan-22 20:00N 35°10' E 139°46'611.7
2018-Jan-22 19:28N 35°04' E 139°43'611.9
2018-Jan-22 19:00N 35°01' E 139°37'2311.8
2018-Jan-22 17:01N 34°47' E 139°14'111.4
2018-Jan-22 16:57N 34°47' E 139°14'710.9
2018-Jan-22 16:17N 34°42' E 139°07'310.7
2018-Jan-22 15:59N 34°40' E 139°04'611.2
2018-Jan-22 15:25N 34°36' E 138°58'3511.6
2018-Jan-22 12:26N 34°33' E 138°16'6810.4
2018-Jan-22 05:56N 34°37' E 136°54'511.8
2018-Jan-22 05:29N 34°41' E 136°49'612.6
2018-Jan-22 04:59N 34°46' E 136°46'612.4
2018-Jan-22 04:30N 34°52' E 136°43'612.1
2018-Jan-22 04:00N 34°58' E 136°41'2 4.9
2018-Jan-22 03:30N 34°56' E 136°38'0 0.0
2018-Jan-21 23:37N 34°56' E 136°38'0 0.0
2018-Jan-21 23:30N 34°56' E 136°38'1 2.7
2018-Jan-21 23:01N 34°57' E 136°40'1 2.1
2018-Jan-21 22:31N 34°57' E 136°41'0 0.0
2018-Jan-21 21:58N 34°57' E 136°41'0 0.0
2018-Jan-21 21:28N 34°57' E 136°41'0 0.0
2018-Jan-21 20:58N 34°57' E 136°41'0 0.0
2018-Jan-21 20:28N 34°57' E 136°41'0 0.1
2018-Jan-21 19:58N 34°57' E 136°41'0 0.1
2018-Jan-21 19:28N 34°57' E 136°41'0 0.0
2018-Jan-21 18:58N 34°57' E 136°41'0 0.0
2018-Jan-21 18:28N 34°57' E 136°41'0 0.0
2018-Jan-21 17:58N 34°57' E 136°41'0 0.0
2018-Jan-21 17:28N 34°57' E 136°41'0 0.0
2018-Jan-21 16:58N 34°57' E 136°41'0 0.0
2018-Jan-21 16:28N 34°57' E 136°41'0 0.0
2018-Jan-21 15:58N 34°57' E 136°41'0 0.0
2018-Jan-21 15:28N 34°57' E 136°41'0 0.0
2018-Jan-21 14:58N 34°57' E 136°41'0 0.0
2018-Jan-21 14:28N 34°57' E 136°41'0 0.0
2018-Jan-21 13:58N 34°57' E 136°41'0 0.0
2018-Jan-21 13:28N 34°57' E 136°41'0 0.0
2018-Jan-21 12:58N 34°57' E 136°41'0 0.0
2018-Jan-21 12:28N 34°57' E 136°41'0 0.0
2018-Jan-21 11:46N 34°57' E 136°41'0 0.0
2018-Jan-21 11:28N 34°57' E 136°41'0 0.0
2018-Jan-21 10:58N 34°57' E 136°41'0 0.0
2018-Jan-21 10:28N 34°57' E 136°41'0 0.0
2018-Jan-21 09:58N 34°57' E 136°41'0 0.0
2018-Jan-21 09:28N 34°57' E 136°41'0 0.0
2018-Jan-21 08:52N 34°57' E 136°41'0 0.1
2018-Jan-21 08:30N 34°57' E 136°41'4 8.5
2018-Jan-21 08:00N 34°53' E 136°42'612.2
2018-Jan-21 07:30N 34°47' E 136°45'102 7.8
2018-Jan-20 18:27N 33°52' E 135°02'613.2
2018-Jan-20 18:01N 33°57' E 135°00'713.6
2018-Jan-20 17:31N 34°04' E 134°60'713.6
2018-Jan-20 17:01N 34°11' E 134°59'713.9
2018-Jan-20 16:31N 34°18' E 134°59'713.5
2018-Jan-20 16:00N 34°25' E 135°01'612.8
2018-Jan-20 15:30N 34°31' E 135°02'611.1
2018-Jan-20 15:00N 34°36' E 135°02'510.7
2018-Jan-20 14:30N 34°35' E 134°56'611.5
2018-Jan-20 14:00N 34°33' E 134°49'611.5
2018-Jan-20 13:30N 34°31' E 134°43'612.2
2018-Jan-20 13:00N 34°28' E 134°36'  

Dump ship's entire track history